sensor_id;sensor_type;location;lat;lon;timestamp;P1;durP1;ratioP1;P2;durP2;ratioP2
28627;SDS011;15815;46.760;19.604;2023-11-21T00:01:02;26.58;;;13.55;;
28627;SDS011;15815;46.760;19.604;2023-11-21T00:03:29;37.97;;;14.77;;
28627;SDS011;15815;46.760;19.604;2023-11-21T00:05:55;24.42;;;13.30;;
28627;SDS011;15815;46.760;19.604;2023-11-21T00:08:23;35.10;;;14.98;;
28627;SDS011;15815;46.760;19.604;2023-11-21T00:10:48;34.60;;;14.73;;
28627;SDS011;15815;46.760;19.604;2023-11-21T00:13:14;40.83;;;16.52;;
28627;SDS011;15815;46.760;19.604;2023-11-21T00:15:39;35.72;;;15.30;;
28627;SDS011;15815;46.760;19.604;2023-11-21T00:18:05;34.63;;;15.68;;
28627;SDS011;15815;46.760;19.604;2023-11-21T00:20:35;33.85;;;14.30;;
28627;SDS011;15815;46.760;19.604;2023-11-21T00:23:00;31.92;;;14.82;;
28627;SDS011;15815;46.760;19.604;2023-11-21T00:25:27;33.83;;;14.57;;
28627;SDS011;15815;46.760;19.604;2023-11-21T00:27:52;38.95;;;14.98;;
28627;SDS011;15815;46.760;19.604;2023-11-21T00:30:20;26.42;;;13.38;;
28627;SDS011;15815;46.760;19.604;2023-11-21T00:32:45;22.83;;;12.35;;
28627;SDS011;15815;46.760;19.604;2023-11-21T00:35:11;32.92;;;12.75;;
28627;SDS011;15815;46.760;19.604;2023-11-21T00:37:36;27.80;;;12.68;;
28627;SDS011;15815;46.760;19.604;2023-11-21T00:40:02;23.90;;;12.57;;
28627;SDS011;15815;46.760;19.604;2023-11-21T00:42:28;23.83;;;11.57;;
28627;SDS011;15815;46.760;19.604;2023-11-21T00:44:54;19.40;;;11.18;;
28627;SDS011;15815;46.760;19.604;2023-11-21T00:47:20;19.40;;;10.02;;
28627;SDS011;15815;46.760;19.604;2023-11-21T00:49:45;16.83;;;9.90;;
28627;SDS011;15815;46.760;19.604;2023-11-21T00:52:11;16.60;;;9.85;;
28627;SDS011;15815;46.760;19.604;2023-11-21T00:54:36;17.60;;;9.45;;
28627;SDS011;15815;46.760;19.604;2023-11-21T00:57:02;16.75;;;9.77;;
28627;SDS011;15815;46.760;19.604;2023-11-21T00:59:27;20.00;;;9.82;;
28627;SDS011;15815;46.760;19.604;2023-11-21T01:01:54;18.83;;;10.63;;
28627;SDS011;15815;46.760;19.604;2023-11-21T01:04:19;18.25;;;9.50;;
28627;SDS011;15815;46.760;19.604;2023-11-21T01:06:45;18.10;;;9.30;;
28627;SDS011;15815;46.760;19.604;2023-11-21T01:09:10;20.83;;;10.48;;
28627;SDS011;15815;46.760;19.604;2023-11-21T01:11:37;17.17;;;8.52;;
28627;SDS011;15815;46.760;19.604;2023-11-21T01:14:05;13.63;;;8.35;;
28627;SDS011;15815;46.760;19.604;2023-11-21T01:16:31;16.67;;;9.13;;
28627;SDS011;15815;46.760;19.604;2023-11-21T01:18:59;15.43;;;8.50;;
28627;SDS011;15815;46.760;19.604;2023-11-21T01:21:24;15.15;;;8.93;;
28627;SDS011;15815;46.760;19.604;2023-11-21T01:23:50;15.48;;;9.18;;
28627;SDS011;15815;46.760;19.604;2023-11-21T01:26:16;17.75;;;9.07;;
28627;SDS011;15815;46.760;19.604;2023-11-21T01:28:42;22.55;;;10.07;;
28627;SDS011;15815;46.760;19.604;2023-11-21T01:33:43;23.27;;;11.18;;
28627;SDS011;15815;46.760;19.604;2023-11-21T01:36:08;18.95;;;10.27;;
28627;SDS011;15815;46.760;19.604;2023-11-21T01:38:34;16.55;;;9.55;;
28627;SDS011;15815;46.760;19.604;2023-11-21T01:41:01;21.30;;;10.23;;
28627;SDS011;15815;46.760;19.604;2023-11-21T01:43:27;21.85;;;10.10;;
28627;SDS011;15815;46.760;19.604;2023-11-21T01:45:55;18.00;;;10.60;;
28627;SDS011;15815;46.760;19.604;2023-11-21T01:48:21;19.27;;;10.23;;
28627;SDS011;15815;46.760;19.604;2023-11-21T01:50:46;17.90;;;10.15;;
28627;SDS011;15815;46.760;19.604;2023-11-21T01:53:14;23.73;;;11.23;;
28627;SDS011;15815;46.760;19.604;2023-11-21T01:55:40;22.50;;;11.25;;
28627;SDS011;15815;46.760;19.604;2023-11-21T01:58:07;23.63;;;11.75;;
28627;SDS011;15815;46.760;19.604;2023-11-21T02:00:34;24.08;;;12.25;;
28627;SDS011;15815;46.760;19.604;2023-11-21T02:03:00;21.83;;;11.25;;
28627;SDS011;15815;46.760;19.604;2023-11-21T02:05:25;24.83;;;14.88;;
28627;SDS011;15815;46.760;19.604;2023-11-21T02:07:52;31.75;;;15.93;;
28627;SDS011;15815;46.760;19.604;2023-11-21T02:10:18;28.23;;;15.00;;
28627;SDS011;15815;46.760;19.604;2023-11-21T02:12:44;28.35;;;14.38;;
28627;SDS011;15815;46.760;19.604;2023-11-21T02:15:10;27.17;;;14.35;;
28627;SDS011;15815;46.760;19.604;2023-11-21T02:17:38;25.45;;;14.13;;
28627;SDS011;15815;46.760;19.604;2023-11-21T02:20:03;21.42;;;12.90;;
28627;SDS011;15815;46.760;19.604;2023-11-21T02:22:30;27.00;;;14.02;;
28627;SDS011;15815;46.760;19.604;2023-11-21T02:24:59;25.88;;;13.02;;
28627;SDS011;15815;46.760;19.604;2023-11-21T02:27:25;26.45;;;13.68;;
28627;SDS011;15815;46.760;19.604;2023-11-21T02:29:51;21.50;;;12.93;;
28627;SDS011;15815;46.760;19.604;2023-11-21T02:32:16;30.15;;;12.88;;
28627;SDS011;15815;46.760;19.604;2023-11-21T02:34:42;29.25;;;12.93;;
28627;SDS011;15815;46.760;19.604;2023-11-21T02:37:08;31.05;;;14.55;;
28627;SDS011;15815;46.760;19.604;2023-11-21T02:39:33;32.97;;;16.92;;
28627;SDS011;15815;46.760;19.604;2023-11-21T02:42:00;36.85;;;16.27;;
28627;SDS011;15815;46.760;19.604;2023-11-21T02:44:25;33.22;;;15.77;;
28627;SDS011;15815;46.760;19.604;2023-11-21T02:46:56;37.55;;;17.00;;
28627;SDS011;15815;46.760;19.604;2023-11-21T02:49:22;41.30;;;18.13;;
28627;SDS011;15815;46.760;19.604;2023-11-21T02:51:47;36.95;;;17.85;;
28627;SDS011;15815;46.760;19.604;2023-11-21T02:54:13;33.55;;;17.35;;
28627;SDS011;15815;46.760;19.604;2023-11-21T02:56:40;30.60;;;16.40;;
28627;SDS011;15815;46.760;19.604;2023-11-21T02:59:06;35.90;;;17.27;;
28627;SDS011;15815;46.760;19.604;2023-11-21T03:01:31;38.38;;;17.35;;
28627;SDS011;15815;46.760;19.604;2023-11-21T03:03:57;35.13;;;17.63;;
28627;SDS011;15815;46.760;19.604;2023-11-21T03:06:22;35.47;;;16.85;;
28627;SDS011;15815;46.760;19.604;2023-11-21T03:08:48;39.85;;;18.20;;
28627;SDS011;15815;46.760;19.604;2023-11-21T03:11:13;34.88;;;18.17;;
28627;SDS011;15815;46.760;19.604;2023-11-21T03:13:39;34.17;;;17.05;;
28627;SDS011;15815;46.760;19.604;2023-11-21T03:16:06;37.58;;;17.38;;
28627;SDS011;15815;46.760;19.604;2023-11-21T03:18:33;36.63;;;15.93;;
28627;SDS011;15815;46.760;19.604;2023-11-21T03:20:58;40.33;;;17.55;;
28627;SDS011;15815;46.760;19.604;2023-11-21T03:23:24;32.05;;;16.33;;
28627;SDS011;15815;46.760;19.604;2023-11-21T03:25:49;32.50;;;15.32;;
28627;SDS011;15815;46.760;19.604;2023-11-21T03:28:15;34.25;;;16.23;;
28627;SDS011;15815;46.760;19.604;2023-11-21T03:30:40;46.78;;;17.88;;
28627;SDS011;15815;46.760;19.604;2023-11-21T03:33:06;36.50;;;17.00;;
28627;SDS011;15815;46.760;19.604;2023-11-21T03:35:31;30.40;;;15.55;;
28627;SDS011;15815;46.760;19.604;2023-11-21T03:37:57;34.55;;;17.20;;
28627;SDS011;15815;46.760;19.604;2023-11-21T03:40:22;31.10;;;15.52;;
28627;SDS011;15815;46.760;19.604;2023-11-21T03:42:48;26.27;;;14.30;;
28627;SDS011;15815;46.760;19.604;2023-11-21T03:45:14;34.22;;;14.43;;
28627;SDS011;15815;46.760;19.604;2023-11-21T03:47:44;27.63;;;14.80;;
28627;SDS011;15815;46.760;19.604;2023-11-21T03:50:09;25.10;;;12.80;;
28627;SDS011;15815;46.760;19.604;2023-11-21T03:52:35;28.83;;;13.18;;
28627;SDS011;15815;46.760;19.604;2023-11-21T03:55:18;26.15;;;12.52;;
28627;SDS011;15815;46.760;19.604;2023-11-21T03:57:44;29.50;;;14.75;;
28627;SDS011;15815;46.760;19.604;2023-11-21T04:00:09;25.55;;;12.55;;
28627;SDS011;15815;46.760;19.604;2023-11-21T04:02:35;18.92;;;10.75;;
28627;SDS011;15815;46.760;19.604;2023-11-21T04:05:01;19.52;;;10.35;;
28627;SDS011;15815;46.760;19.604;2023-11-21T04:07:27;13.02;;;7.57;;
28627;SDS011;15815;46.760;19.604;2023-11-21T04:09:53;13.68;;;8.40;;
28627;SDS011;15815;46.760;19.604;2023-11-21T04:12:19;13.98;;;8.45;;
28627;SDS011;15815;46.760;19.604;2023-11-21T04:14:44;11.55;;;7.35;;
28627;SDS011;15815;46.760;19.604;2023-11-21T04:17:10;13.90;;;7.72;;
28627;SDS011;15815;46.760;19.604;2023-11-21T04:19:35;18.55;;;8.68;;
28627;SDS011;15815;46.760;19.604;2023-11-21T04:22:01;16.55;;;7.70;;
28627;SDS011;15815;46.760;19.604;2023-11-21T04:24:27;11.38;;;6.75;;
28627;SDS011;15815;46.760;19.604;2023-11-21T04:26:58;12.80;;;7.88;;
28627;SDS011;15815;46.760;19.604;2023-11-21T04:29:24;12.75;;;6.85;;
28627;SDS011;15815;46.760;19.604;2023-11-21T04:31:49;15.05;;;6.60;;
28627;SDS011;15815;46.760;19.604;2023-11-21T04:34:17;12.95;;;7.47;;
28627;SDS011;15815;46.760;19.604;2023-11-21T04:36:42;15.52;;;7.05;;
28627;SDS011;15815;46.760;19.604;2023-11-21T04:39:08;12.07;;;6.57;;
28627;SDS011;15815;46.760;19.604;2023-11-21T04:41:33;12.32;;;7.25;;
28627;SDS011;15815;46.760;19.604;2023-11-21T04:43:59;19.20;;;8.00;;
28627;SDS011;15815;46.760;19.604;2023-11-21T04:46:24;13.63;;;7.90;;
28627;SDS011;15815;46.760;19.604;2023-11-21T04:48:50;15.90;;;7.72;;
28627;SDS011;15815;46.760;19.604;2023-11-21T04:51:15;14.27;;;7.63;;
28627;SDS011;15815;46.760;19.604;2023-11-21T04:53:41;14.80;;;7.40;;
28627;SDS011;15815;46.760;19.604;2023-11-21T04:56:06;12.45;;;7.78;;
28627;SDS011;15815;46.760;19.604;2023-11-21T04:58:32;11.15;;;6.95;;
28627;SDS011;15815;46.760;19.604;2023-11-21T05:00:58;11.82;;;7.10;;
28627;SDS011;15815;46.760;19.604;2023-11-21T05:03:23;17.33;;;9.02;;
28627;SDS011;15815;46.760;19.604;2023-11-21T05:05:49;21.95;;;9.85;;
28627;SDS011;15815;46.760;19.604;2023-11-21T05:08:14;30.05;;;13.70;;
28627;SDS011;15815;46.760;19.604;2023-11-21T05:10:40;44.95;;;18.67;;
28627;SDS011;15815;46.760;19.604;2023-11-21T05:13:05;38.78;;;17.55;;
28627;SDS011;15815;46.760;19.604;2023-11-21T05:15:31;37.92;;;16.42;;
28627;SDS011;15815;46.760;19.604;2023-11-21T05:17:56;36.42;;;16.50;;
28627;SDS011;15815;46.760;19.604;2023-11-21T05:20:25;35.83;;;16.48;;
28627;SDS011;15815;46.760;19.604;2023-11-21T05:22:51;30.48;;;15.52;;
28627;SDS011;15815;46.760;19.604;2023-11-21T05:25:17;36.75;;;16.90;;
28627;SDS011;15815;46.760;19.604;2023-11-21T05:27:43;30.15;;;14.95;;
28627;SDS011;15815;46.760;19.604;2023-11-21T05:30:09;36.75;;;15.88;;
28627;SDS011;15815;46.760;19.604;2023-11-21T05:32:36;29.17;;;14.40;;
28627;SDS011;15815;46.760;19.604;2023-11-21T05:35:01;35.00;;;16.13;;
28627;SDS011;15815;46.760;19.604;2023-11-21T05:37:27;32.85;;;17.30;;
28627;SDS011;15815;46.760;19.604;2023-11-21T05:39:53;27.42;;;15.63;;
28627;SDS011;15815;46.760;19.604;2023-11-21T05:42:18;23.13;;;12.38;;
28627;SDS011;15815;46.760;19.604;2023-11-21T05:44:45;29.75;;;14.35;;
28627;SDS011;15815;46.760;19.604;2023-11-21T05:47:11;27.83;;;13.77;;
28627;SDS011;15815;46.760;19.604;2023-11-21T05:49:37;26.25;;;14.75;;
28627;SDS011;15815;46.760;19.604;2023-11-21T05:52:02;35.47;;;18.10;;
28627;SDS011;15815;46.760;19.604;2023-11-21T05:54:28;43.72;;;18.55;;
28627;SDS011;15815;46.760;19.604;2023-11-21T05:56:54;33.13;;;17.23;;
28627;SDS011;15815;46.760;19.604;2023-11-21T05:59:19;42.40;;;16.83;;
28627;SDS011;15815;46.760;19.604;2023-11-21T06:01:48;42.53;;;18.92;;
28627;SDS011;15815;46.760;19.604;2023-11-21T06:04:13;50.63;;;22.55;;
28627;SDS011;15815;46.760;19.604;2023-11-21T06:06:40;52.60;;;23.80;;
28627;SDS011;15815;46.760;19.604;2023-11-21T06:09:05;60.70;;;25.98;;
28627;SDS011;15815;46.760;19.604;2023-11-21T06:11:31;40.03;;;17.70;;
28627;SDS011;15815;46.760;19.604;2023-11-21T06:13:57;25.38;;;13.93;;
28627;SDS011;15815;46.760;19.604;2023-11-21T06:16:22;23.70;;;12.15;;
28627;SDS011;15815;46.760;19.604;2023-11-21T06:18:48;17.27;;;9.85;;
28627;SDS011;15815;46.760;19.604;2023-11-21T06:21:13;14.43;;;9.07;;
28627;SDS011;15815;46.760;19.604;2023-11-21T06:23:39;18.83;;;9.75;;
28627;SDS011;15815;46.760;19.604;2023-11-21T06:26:05;19.75;;;10.27;;
28627;SDS011;15815;46.760;19.604;2023-11-21T06:28:30;17.95;;;8.90;;
28627;SDS011;15815;46.760;19.604;2023-11-21T06:30:56;19.88;;;10.32;;
28627;SDS011;15815;46.760;19.604;2023-11-21T06:33:25;18.00;;;9.40;;
28627;SDS011;15815;46.760;19.604;2023-11-21T06:35:50;15.07;;;9.00;;
28627;SDS011;15815;46.760;19.604;2023-11-21T06:38:16;14.88;;;8.77;;
28627;SDS011;15815;46.760;19.604;2023-11-21T06:40:41;26.52;;;10.68;;
28627;SDS011;15815;46.760;19.604;2023-11-21T06:43:08;18.38;;;9.57;;
28627;SDS011;15815;46.760;19.604;2023-11-21T06:45:33;17.17;;;9.98;;
28627;SDS011;15815;46.760;19.604;2023-11-21T06:47:59;19.25;;;9.27;;
28627;SDS011;15815;46.760;19.604;2023-11-21T06:50:25;20.40;;;9.27;;
28627;SDS011;15815;46.760;19.604;2023-11-21T06:52:50;16.77;;;9.50;;
28627;SDS011;15815;46.760;19.604;2023-11-21T06:55:16;15.48;;;10.50;;
28627;SDS011;15815;46.760;19.604;2023-11-21T06:57:41;19.15;;;9.20;;
28627;SDS011;15815;46.760;19.604;2023-11-21T07:00:07;20.75;;;10.32;;
28627;SDS011;15815;46.760;19.604;2023-11-21T07:02:33;18.85;;;9.68;;
28627;SDS011;15815;46.760;19.604;2023-11-21T07:04:58;38.53;;;14.10;;
28627;SDS011;15815;46.760;19.604;2023-11-21T07:07:25;61.95;;;19.02;;
28627;SDS011;15815;46.760;19.604;2023-11-21T07:09:50;27.13;;;12.10;;
28627;SDS011;15815;46.760;19.604;2023-11-21T07:12:16;17.48;;;9.55;;
28627;SDS011;15815;46.760;19.604;2023-11-21T07:14:41;19.33;;;9.32;;
28627;SDS011;15815;46.760;19.604;2023-11-21T07:17:08;16.83;;;8.85;;
28627;SDS011;15815;46.760;19.604;2023-11-21T07:19:34;22.45;;;9.90;;
28627;SDS011;15815;46.760;19.604;2023-11-21T07:22:00;23.27;;;9.70;;
28627;SDS011;15815;46.760;19.604;2023-11-21T07:24:25;18.70;;;9.10;;
28627;SDS011;15815;46.760;19.604;2023-11-21T07:26:51;17.08;;;9.32;;
28627;SDS011;15815;46.760;19.604;2023-11-21T07:29:17;17.30;;;9.35;;
28627;SDS011;15815;46.760;19.604;2023-11-21T07:31:43;31.13;;;13.73;;
28627;SDS011;15815;46.760;19.604;2023-11-21T07:34:08;21.77;;;11.38;;
28627;SDS011;15815;46.760;19.604;2023-11-21T07:36:34;17.35;;;9.88;;
28627;SDS011;15815;46.760;19.604;2023-11-21T07:38:59;17.55;;;9.10;;
28627;SDS011;15815;46.760;19.604;2023-11-21T07:41:25;15.82;;;9.68;;
28627;SDS011;15815;46.760;19.604;2023-11-21T07:43:51;20.23;;;9.70;;
28627;SDS011;15815;46.760;19.604;2023-11-21T07:46:17;28.05;;;12.13;;
28627;SDS011;15815;46.760;19.604;2023-11-21T07:48:42;27.95;;;13.38;;
28627;SDS011;15815;46.760;19.604;2023-11-21T07:51:09;25.95;;;12.93;;
28627;SDS011;15815;46.760;19.604;2023-11-21T07:53:35;19.05;;;10.57;;
28627;SDS011;15815;46.760;19.604;2023-11-21T07:56:05;21.35;;;12.02;;
28627;SDS011;15815;46.760;19.604;2023-11-21T07:58:33;25.40;;;11.70;;
28627;SDS011;15815;46.760;19.604;2023-11-21T08:01:02;20.05;;;10.40;;
28627;SDS011;15815;46.760;19.604;2023-11-21T08:03:28;17.40;;;9.60;;
28627;SDS011;15815;46.760;19.604;2023-11-21T08:05:58;21.50;;;10.63;;
28627;SDS011;15815;46.760;19.604;2023-11-21T08:08:23;25.02;;;10.90;;
28627;SDS011;15815;46.760;19.604;2023-11-21T08:10:49;25.33;;;13.43;;
28627;SDS011;15815;46.760;19.604;2023-11-21T08:13:17;45.90;;;17.10;;
28627;SDS011;15815;46.760;19.604;2023-11-21T08:15:43;36.78;;;16.52;;
28627;SDS011;15815;46.760;19.604;2023-11-21T08:18:08;26.67;;;14.05;;
28627;SDS011;15815;46.760;19.604;2023-11-21T08:20:34;28.95;;;14.68;;
28627;SDS011;15815;46.760;19.604;2023-11-21T08:22:59;25.88;;;13.02;;
28627;SDS011;15815;46.760;19.604;2023-11-21T08:25:25;22.60;;;11.13;;
28627;SDS011;15815;46.760;19.604;2023-11-21T08:27:51;15.88;;;8.95;;
28627;SDS011;15815;46.760;19.604;2023-11-21T08:30:16;14.77;;;8.15;;
28627;SDS011;15815;46.760;19.604;2023-11-21T08:32:42;15.40;;;8.52;;
28627;SDS011;15815;46.760;19.604;2023-11-21T08:35:08;13.07;;;7.25;;
28627;SDS011;15815;46.760;19.604;2023-11-21T08:37:33;14.07;;;7.13;;
28627;SDS011;15815;46.760;19.604;2023-11-21T08:39:59;11.32;;;7.03;;
28627;SDS011;15815;46.760;19.604;2023-11-21T08:42:24;15.38;;;7.32;;
28627;SDS011;15815;46.760;19.604;2023-11-21T08:44:53;15.85;;;7.35;;
28627;SDS011;15815;46.760;19.604;2023-11-21T08:47:18;13.15;;;7.22;;
28627;SDS011;15815;46.760;19.604;2023-11-21T08:49:43;16.08;;;8.30;;
28627;SDS011;15815;46.760;19.604;2023-11-21T08:52:09;15.73;;;8.18;;
28627;SDS011;15815;46.760;19.604;2023-11-21T08:54:34;16.27;;;8.50;;
28627;SDS011;15815;46.760;19.604;2023-11-21T08:57:00;14.27;;;8.00;;
28627;SDS011;15815;46.760;19.604;2023-11-21T08:59:26;12.90;;;7.78;;
28627;SDS011;15815;46.760;19.604;2023-11-21T09:01:51;14.73;;;7.32;;
28627;SDS011;15815;46.760;19.604;2023-11-21T09:04:18;14.73;;;7.65;;
28627;SDS011;15815;46.760;19.604;2023-11-21T09:06:43;10.27;;;6.57;;
28627;SDS011;15815;46.760;19.604;2023-11-21T09:09:09;11.02;;;6.28;;
28627;SDS011;15815;46.760;19.604;2023-11-21T09:11:34;15.13;;;7.38;;
28627;SDS011;15815;46.760;19.604;2023-11-21T09:14:00;13.65;;;6.57;;
28627;SDS011;15815;46.760;19.604;2023-11-21T09:16:26;15.82;;;7.35;;
28627;SDS011;15815;46.760;19.604;2023-11-21T09:18:51;19.27;;;8.65;;
28627;SDS011;15815;46.760;19.604;2023-11-21T09:21:17;19.52;;;10.38;;
28627;SDS011;15815;46.760;19.604;2023-11-21T09:23:43;24.38;;;12.77;;
28627;SDS011;15815;46.760;19.604;2023-11-21T09:26:10;20.10;;;9.50;;
28627;SDS011;15815;46.760;19.604;2023-11-21T09:28:37;17.00;;;10.23;;
28627;SDS011;15815;46.760;19.604;2023-11-21T09:31:02;17.33;;;9.02;;
28627;SDS011;15815;46.760;19.604;2023-11-21T09:33:28;18.08;;;9.52;;
28627;SDS011;15815;46.760;19.604;2023-11-21T09:35:54;17.45;;;8.32;;
28627;SDS011;15815;46.760;19.604;2023-11-21T09:38:19;15.20;;;8.10;;
28627;SDS011;15815;46.760;19.604;2023-11-21T09:40:45;14.20;;;7.30;;
28627;SDS011;15815;46.760;19.604;2023-11-21T09:43:15;14.48;;;7.10;;
28627;SDS011;15815;46.760;19.604;2023-11-21T09:45:42;15.57;;;8.38;;
28627;SDS011;15815;46.760;19.604;2023-11-21T09:48:10;19.67;;;9.63;;
28627;SDS011;15815;46.760;19.604;2023-11-21T09:50:38;23.30;;;10.30;;
28627;SDS011;15815;46.760;19.604;2023-11-21T09:58:04;19.75;;;11.63;;
28627;SDS011;15815;46.760;19.604;2023-11-21T10:00:34;14.05;;;8.10;;
28627;SDS011;15815;46.760;19.604;2023-11-21T10:03:00;13.23;;;8.02;;
28627;SDS011;15815;46.760;19.604;2023-11-21T10:05:25;18.98;;;7.65;;
28627;SDS011;15815;46.760;19.604;2023-11-21T10:07:52;22.25;;;9.50;;
28627;SDS011;15815;46.760;19.604;2023-11-21T10:10:20;14.30;;;7.90;;
28627;SDS011;15815;46.760;19.604;2023-11-21T10:12:48;14.98;;;6.72;;
28627;SDS011;15815;46.760;19.604;2023-11-21T10:15:15;15.18;;;7.72;;
28627;SDS011;15815;46.760;19.604;2023-11-21T10:17:42;17.83;;;8.90;;
28627;SDS011;15815;46.760;19.604;2023-11-21T10:20:10;14.93;;;8.30;;
28627;SDS011;15815;46.760;19.604;2023-11-21T10:22:39;15.00;;;7.53;;
28627;SDS011;15815;46.760;19.604;2023-11-21T10:25:10;13.82;;;8.07;;
28627;SDS011;15815;46.760;19.604;2023-11-21T10:27:36;12.57;;;6.90;;
28627;SDS011;15815;46.760;19.604;2023-11-21T10:30:02;11.55;;;6.38;;
28627;SDS011;15815;46.760;19.604;2023-11-21T10:32:31;10.55;;;5.93;;
28627;SDS011;15815;46.760;19.604;2023-11-21T10:34:56;12.80;;;6.03;;
28627;SDS011;15815;46.760;19.604;2023-11-21T10:37:22;10.63;;;5.10;;
28627;SDS011;15815;46.760;19.604;2023-11-21T10:39:47;10.43;;;5.53;;
28627;SDS011;15815;46.760;19.604;2023-11-21T10:42:13;8.18;;;4.82;;
28627;SDS011;15815;46.760;19.604;2023-11-21T10:44:38;8.60;;;5.00;;
28627;SDS011;15815;46.760;19.604;2023-11-21T10:47:08;14.55;;;5.35;;
28627;SDS011;15815;46.760;19.604;2023-11-21T10:49:33;11.07;;;5.20;;
28627;SDS011;15815;46.760;19.604;2023-11-21T10:52:02;11.20;;;4.95;;
28627;SDS011;15815;46.760;19.604;2023-11-21T10:54:28;8.07;;;4.30;;
28627;SDS011;15815;46.760;19.604;2023-11-21T10:56:57;7.97;;;4.65;;
28627;SDS011;15815;46.760;19.604;2023-11-21T10:59:26;8.27;;;5.63;;
28627;SDS011;15815;46.760;19.604;2023-11-21T11:01:54;10.82;;;6.68;;
28627;SDS011;15815;46.760;19.604;2023-11-21T11:04:23;11.15;;;5.18;;
28627;SDS011;15815;46.760;19.604;2023-11-21T11:06:56;7.97;;;3.92;;
28627;SDS011;15815;46.760;19.604;2023-11-21T11:09:25;6.45;;;3.20;;
28627;SDS011;15815;46.760;19.604;2023-11-21T11:11:51;7.03;;;3.35;;
28627;SDS011;15815;46.760;19.604;2023-11-21T11:14:18;4.10;;;3.22;;
28627;SDS011;15815;46.760;19.604;2023-11-21T11:16:44;5.03;;;3.78;;
28627;SDS011;15815;46.760;19.604;2023-11-21T11:19:10;10.85;;;5.20;;
28627;SDS011;15815;46.760;19.604;2023-11-21T11:21:53;6.55;;;3.88;;
28627;SDS011;15815;46.760;19.604;2023-11-21T11:32:38;5.60;;;4.13;;
28627;SDS011;15815;46.760;19.604;2023-11-21T11:35:19;4.88;;;3.13;;
28627;SDS011;15815;46.760;19.604;2023-11-21T11:38:04;4.65;;;2.97;;
28627;SDS011;15815;46.760;19.604;2023-11-21T11:40:40;4.28;;;2.58;;
28627;SDS011;15815;46.760;19.604;2023-11-21T11:43:06;5.07;;;2.40;;
28627;SDS011;15815;46.760;19.604;2023-11-21T11:45:32;6.50;;;2.50;;
28627;SDS011;15815;46.760;19.604;2023-11-21T11:47:59;5.40;;;3.40;;
28627;SDS011;15815;46.760;19.604;2023-11-21T11:50:25;5.60;;;2.40;;
28627;SDS011;15815;46.760;19.604;2023-11-21T11:52:54;3.22;;;2.20;;
28627;SDS011;15815;46.760;19.604;2023-11-21T11:55:23;9.07;;;6.15;;
28627;SDS011;15815;46.760;19.604;2023-11-21T11:57:53;9.73;;;5.40;;
28627;SDS011;15815;46.760;19.604;2023-11-21T12:00:20;7.30;;;5.50;;
28627;SDS011;15815;46.760;19.604;2023-11-21T12:02:47;4.63;;;3.30;;
28627;SDS011;15815;46.760;19.604;2023-11-21T12:05:14;3.00;;;2.45;;
28627;SDS011;15815;46.760;19.604;2023-11-21T12:07:42;6.60;;;3.08;;
28627;SDS011;15815;46.760;19.604;2023-11-21T12:10:18;6.60;;;2.90;;
28627;SDS011;15815;46.760;19.604;2023-11-21T12:12:46;7.05;;;3.15;;
28627;SDS011;15815;46.760;19.604;2023-11-21T12:15:13;3.75;;;2.50;;
28627;SDS011;15815;46.760;19.604;2023-11-21T12:17:42;4.10;;;2.13;;
28627;SDS011;15815;46.760;19.604;2023-11-21T12:20:08;4.32;;;3.00;;
28627;SDS011;15815;46.760;19.604;2023-11-21T12:22:35;12.55;;;7.88;;
28627;SDS011;15815;46.760;19.604;2023-11-21T12:25:00;17.00;;;7.80;;
28627;SDS011;15815;46.760;19.604;2023-11-21T12:27:26;12.48;;;6.28;;
28627;SDS011;15815;46.760;19.604;2023-11-21T12:29:52;5.43;;;3.08;;
28627;SDS011;15815;46.760;19.604;2023-11-21T12:32:21;3.35;;;2.17;;
28627;SDS011;15815;46.760;19.604;2023-11-21T12:34:47;3.22;;;2.33;;
28627;SDS011;15815;46.760;19.604;2023-11-21T12:37:15;2.78;;;2.05;;
28627;SDS011;15815;46.760;19.604;2023-11-21T12:39:41;9.73;;;4.70;;
28627;SDS011;15815;46.760;19.604;2023-11-21T12:42:06;8.70;;;3.17;;
28627;SDS011;15815;46.760;19.604;2023-11-21T12:44:32;6.13;;;3.42;;
28627;SDS011;15815;46.760;19.604;2023-11-21T12:46:57;5.55;;;3.92;;
28627;SDS011;15815;46.760;19.604;2023-11-21T12:49:24;6.55;;;3.05;;
28627;SDS011;15815;46.760;19.604;2023-11-21T12:51:49;4.45;;;2.70;;
28627;SDS011;15815;46.760;19.604;2023-11-21T12:54:16;5.68;;;2.97;;
28627;SDS011;15815;46.760;19.604;2023-11-21T12:56:41;5.07;;;3.20;;
28627;SDS011;15815;46.760;19.604;2023-11-21T12:59:11;4.78;;;2.45;;
28627;SDS011;15815;46.760;19.604;2023-11-21T13:01:43;6.10;;;3.85;;
28627;SDS011;15815;46.760;19.604;2023-11-21T13:04:09;5.13;;;3.10;;
28627;SDS011;15815;46.760;19.604;2023-11-21T13:06:34;7.13;;;4.05;;
28627;SDS011;15815;46.760;19.604;2023-11-21T13:09:01;8.98;;;5.50;;
28627;SDS011;15815;46.760;19.604;2023-11-21T13:11:33;13.18;;;7.00;;
28627;SDS011;15815;46.760;19.604;2023-11-21T13:14:00;25.13;;;11.82;;
28627;SDS011;15815;46.760;19.604;2023-11-21T13:16:25;34.65;;;13.52;;
28627;SDS011;15815;46.760;19.604;2023-11-21T13:18:51;39.58;;;16.25;;
28627;SDS011;15815;46.760;19.604;2023-11-21T13:21:16;29.55;;;12.30;;
28627;SDS011;15815;46.760;19.604;2023-11-21T13:23:45;38.45;;;16.70;;
28627;SDS011;15815;46.760;19.604;2023-11-21T13:26:10;25.40;;;10.45;;
28627;SDS011;15815;46.760;19.604;2023-11-21T13:28:37;17.15;;;7.60;;
28627;SDS011;15815;46.760;19.604;2023-11-21T13:31:03;16.02;;;7.70;;
28627;SDS011;15815;46.760;19.604;2023-11-21T13:33:30;17.15;;;7.75;;
28627;SDS011;15815;46.760;19.604;2023-11-21T13:35:56;18.48;;;10.57;;
28627;SDS011;15815;46.760;19.604;2023-11-21T13:38:21;19.92;;;9.82;;
28627;SDS011;15815;46.760;19.604;2023-11-21T13:40:48;35.00;;;15.60;;
28627;SDS011;15815;46.760;19.604;2023-11-21T13:43:17;51.63;;;26.73;;
28627;SDS011;15815;46.760;19.604;2023-11-21T13:45:44;54.22;;;27.65;;
28627;SDS011;15815;46.760;19.604;2023-11-21T13:48:10;31.10;;;18.08;;
28627;SDS011;15815;46.760;19.604;2023-11-21T13:50:37;25.02;;;15.25;;
28627;SDS011;15815;46.760;19.604;2023-11-21T13:53:03;16.02;;;9.70;;
28627;SDS011;15815;46.760;19.604;2023-11-21T13:55:29;11.52;;;7.78;;
28627;SDS011;15815;46.760;19.604;2023-11-21T13:57:54;19.52;;;10.45;;
28627;SDS011;15815;46.760;19.604;2023-11-21T14:00:20;19.58;;;9.52;;
28627;SDS011;15815;46.760;19.604;2023-11-21T14:02:45;26.33;;;15.07;;
28627;SDS011;15815;46.760;19.604;2023-11-21T14:05:11;28.65;;;14.18;;
28627;SDS011;15815;46.760;19.604;2023-11-21T14:07:36;32.92;;;16.88;;
28627;SDS011;15815;46.760;19.604;2023-11-21T14:10:02;41.53;;;19.05;;
28627;SDS011;15815;46.760;19.604;2023-11-21T14:12:28;26.05;;;13.88;;
28627;SDS011;15815;46.760;19.604;2023-11-21T14:14:54;15.73;;;7.20;;
28627;SDS011;15815;46.760;19.604;2023-11-21T14:17:19;33.42;;;13.70;;
28627;SDS011;15815;46.760;19.604;2023-11-21T14:19:49;22.50;;;9.50;;
28627;SDS011;15815;46.760;19.604;2023-11-21T14:22:17;13.27;;;6.07;;
28627;SDS011;15815;46.760;19.604;2023-11-21T14:24:43;13.70;;;6.78;;
28627;SDS011;15815;46.760;19.604;2023-11-21T14:27:08;10.85;;;4.75;;
28627;SDS011;15815;46.760;19.604;2023-11-21T14:29:34;16.95;;;6.88;;